sensor_id;sensor_type;location;lat;lon;timestamp;P1;durP1;ratioP1;P2;durP2;ratioP2
13933;SDS011;7039;52.168;9.866;2023-11-21T00:00:54;33.40;;;12.03;;
13933;SDS011;7039;52.168;9.866;2023-11-21T00:03:21;29.23;;;11.17;;
13933;SDS011;7039;52.168;9.866;2023-11-21T00:05:48;29.20;;;11.93;;
13933;SDS011;7039;52.168;9.866;2023-11-21T00:08:15;28.33;;;11.83;;
13933;SDS011;7039;52.168;9.866;2023-11-21T00:10:41;25.20;;;11.53;;
13933;SDS011;7039;52.168;9.866;2023-11-21T00:13:08;25.30;;;11.33;;
13933;SDS011;7039;52.168;9.866;2023-11-21T00:15:37;30.73;;;12.17;;
13933;SDS011;7039;52.168;9.866;2023-11-21T00:18:05;23.07;;;11.53;;
13933;SDS011;7039;52.168;9.866;2023-11-21T00:20:32;31.40;;;12.37;;
13933;SDS011;7039;52.168;9.866;2023-11-21T00:22:58;30.63;;;13.10;;
13933;SDS011;7039;52.168;9.866;2023-11-21T00:25:27;24.27;;;12.33;;
13933;SDS011;7039;52.168;9.866;2023-11-21T00:27:53;25.07;;;11.73;;
13933;SDS011;7039;52.168;9.866;2023-11-21T00:30:20;27.50;;;12.43;;
13933;SDS011;7039;52.168;9.866;2023-11-21T00:32:47;28.43;;;12.67;;
13933;SDS011;7039;52.168;9.866;2023-11-21T00:35:15;26.60;;;12.70;;
13933;SDS011;7039;52.168;9.866;2023-11-21T00:37:41;22.27;;;11.33;;
13933;SDS011;7039;52.168;9.866;2023-11-21T00:40:08;32.13;;;12.93;;
13933;SDS011;7039;52.168;9.866;2023-11-21T00:42:36;34.27;;;12.00;;
13933;SDS011;7039;52.168;9.866;2023-11-21T00:45:02;32.60;;;12.37;;
13933;SDS011;7039;52.168;9.866;2023-11-21T00:47:29;23.53;;;11.27;;
13933;SDS011;7039;52.168;9.866;2023-11-21T00:49:56;30.60;;;11.67;;
13933;SDS011;7039;52.168;9.866;2023-11-21T00:52:24;26.90;;;11.73;;
13933;SDS011;7039;52.168;9.866;2023-11-21T00:54:51;24.60;;;12.33;;
13933;SDS011;7039;52.168;9.866;2023-11-21T00:57:17;28.37;;;10.97;;
13933;SDS011;7039;52.168;9.866;2023-11-21T00:59:43;27.93;;;11.40;;
13933;SDS011;7039;52.168;9.866;2023-11-21T01:02:10;31.63;;;11.60;;
13933;SDS011;7039;52.168;9.866;2023-11-21T01:04:36;31.60;;;12.77;;
13933;SDS011;7039;52.168;9.866;2023-11-21T01:07:03;29.30;;;11.97;;
13933;SDS011;7039;52.168;9.866;2023-11-21T01:09:31;29.70;;;12.17;;
13933;SDS011;7039;52.168;9.866;2023-11-21T01:11:58;26.10;;;11.87;;
13933;SDS011;7039;52.168;9.866;2023-11-21T01:14:25;28.43;;;12.30;;
13933;SDS011;7039;52.168;9.866;2023-11-21T01:16:52;25.47;;;11.10;;
13933;SDS011;7039;52.168;9.866;2023-11-21T01:19:18;27.73;;;11.70;;
13933;SDS011;7039;52.168;9.866;2023-11-21T01:21:44;27.93;;;10.97;;
13933;SDS011;7039;52.168;9.866;2023-11-21T01:24:12;28.43;;;12.00;;
13933;SDS011;7039;52.168;9.866;2023-11-21T01:26:39;25.20;;;11.67;;
13933;SDS011;7039;52.168;9.866;2023-11-21T01:29:06;29.37;;;12.73;;
13933;SDS011;7039;52.168;9.866;2023-11-21T01:31:32;30.53;;;12.03;;
13933;SDS011;7039;52.168;9.866;2023-11-21T01:33:59;24.03;;;13.17;;
13933;SDS011;7039;52.168;9.866;2023-11-21T01:36:29;31.33;;;12.93;;
13933;SDS011;7039;52.168;9.866;2023-11-21T01:38:56;32.23;;;14.13;;
13933;SDS011;7039;52.168;9.866;2023-11-21T01:41:24;33.37;;;12.57;;
13933;SDS011;7039;52.168;9.866;2023-11-21T01:43:53;31.87;;;13.47;;
13933;SDS011;7039;52.168;9.866;2023-11-21T01:46:19;31.97;;;12.67;;
13933;SDS011;7039;52.168;9.866;2023-11-21T01:48:46;28.17;;;12.13;;
13933;SDS011;7039;52.168;9.866;2023-11-21T01:51:14;32.40;;;12.93;;
13933;SDS011;7039;52.168;9.866;2023-11-21T01:53:41;29.20;;;11.73;;
13933;SDS011;7039;52.168;9.866;2023-11-21T01:56:08;29.67;;;12.70;;
13933;SDS011;7039;52.168;9.866;2023-11-21T01:58:34;31.10;;;13.10;;
13933;SDS011;7039;52.168;9.866;2023-11-21T02:01:02;34.43;;;14.03;;
13933;SDS011;7039;52.168;9.866;2023-11-21T02:03:29;33.20;;;14.27;;
13933;SDS011;7039;52.168;9.866;2023-11-21T02:05:56;36.53;;;14.27;;
13933;SDS011;7039;52.168;9.866;2023-11-21T02:08:23;30.70;;;13.97;;
13933;SDS011;7039;52.168;9.866;2023-11-21T02:10:50;36.17;;;13.93;;
13933;SDS011;7039;52.168;9.866;2023-11-21T02:13:16;39.30;;;13.80;;
13933;SDS011;7039;52.168;9.866;2023-11-21T02:15:43;32.87;;;12.37;;
13933;SDS011;7039;52.168;9.866;2023-11-21T02:18:11;32.37;;;13.83;;
13933;SDS011;7039;52.168;9.866;2023-11-21T02:20:38;32.60;;;14.10;;
13933;SDS011;7039;52.168;9.866;2023-11-21T02:23:08;29.30;;;13.97;;
13933;SDS011;7039;52.168;9.866;2023-11-21T02:25:34;33.00;;;13.13;;
13933;SDS011;7039;52.168;9.866;2023-11-21T02:28:02;31.20;;;13.37;;
13933;SDS011;7039;52.168;9.866;2023-11-21T02:30:29;30.77;;;13.30;;
13933;SDS011;7039;52.168;9.866;2023-11-21T02:32:57;28.90;;;13.77;;
13933;SDS011;7039;52.168;9.866;2023-11-21T02:35:23;36.80;;;13.10;;
13933;SDS011;7039;52.168;9.866;2023-11-21T02:37:51;40.30;;;14.70;;
13933;SDS011;7039;52.168;9.866;2023-11-21T02:40:19;38.03;;;14.87;;
13933;SDS011;7039;52.168;9.866;2023-11-21T02:42:46;33.67;;;14.03;;
13933;SDS011;7039;52.168;9.866;2023-11-21T02:45:13;34.73;;;14.50;;
13933;SDS011;7039;52.168;9.866;2023-11-21T02:47:41;29.80;;;14.17;;
13933;SDS011;7039;52.168;9.866;2023-11-21T02:50:08;33.90;;;14.40;;
13933;SDS011;7039;52.168;9.866;2023-11-21T02:52:35;29.47;;;14.37;;
13933;SDS011;7039;52.168;9.866;2023-11-21T02:55:01;37.40;;;14.43;;
13933;SDS011;7039;52.168;9.866;2023-11-21T02:57:30;35.03;;;14.33;;
13933;SDS011;7039;52.168;9.866;2023-11-21T02:59:56;31.33;;;14.00;;
13933;SDS011;7039;52.168;9.866;2023-11-21T03:02:23;35.80;;;14.70;;
13933;SDS011;7039;52.168;9.866;2023-11-21T03:04:49;37.30;;;14.40;;
13933;SDS011;7039;52.168;9.866;2023-11-21T03:07:15;37.80;;;15.57;;
13933;SDS011;7039;52.168;9.866;2023-11-21T03:09:44;45.87;;;14.60;;
13933;SDS011;7039;52.168;9.866;2023-11-21T03:12:10;28.07;;;13.80;;
13933;SDS011;7039;52.168;9.866;2023-11-21T03:14:39;39.83;;;14.33;;
13933;SDS011;7039;52.168;9.866;2023-11-21T03:17:05;40.10;;;14.77;;
13933;SDS011;7039;52.168;9.866;2023-11-21T03:19:32;33.10;;;13.90;;
13933;SDS011;7039;52.168;9.866;2023-11-21T03:21:58;41.80;;;16.00;;
13933;SDS011;7039;52.168;9.866;2023-11-21T03:24:25;37.63;;;15.93;;
13933;SDS011;7039;52.168;9.866;2023-11-21T03:26:51;43.43;;;14.23;;
13933;SDS011;7039;52.168;9.866;2023-11-21T03:29:18;38.13;;;15.47;;
13933;SDS011;7039;52.168;9.866;2023-11-21T03:31:46;39.90;;;15.33;;
13933;SDS011;7039;52.168;9.866;2023-11-21T03:34:14;39.50;;;15.07;;
13933;SDS011;7039;52.168;9.866;2023-11-21T03:36:43;45.57;;;17.20;;
13933;SDS011;7039;52.168;9.866;2023-11-21T03:39:11;40.57;;;15.40;;
13933;SDS011;7039;52.168;9.866;2023-11-21T03:41:38;35.90;;;15.57;;
13933;SDS011;7039;52.168;9.866;2023-11-21T03:44:04;40.87;;;16.30;;
13933;SDS011;7039;52.168;9.866;2023-11-21T03:46:31;43.03;;;16.03;;
13933;SDS011;7039;52.168;9.866;2023-11-21T03:48:58;34.87;;;15.33;;
13933;SDS011;7039;52.168;9.866;2023-11-21T03:51:25;40.10;;;15.67;;
13933;SDS011;7039;52.168;9.866;2023-11-21T03:53:51;46.53;;;17.00;;
13933;SDS011;7039;52.168;9.866;2023-11-21T03:56:18;41.73;;;15.10;;
13933;SDS011;7039;52.168;9.866;2023-11-21T03:58:46;47.90;;;17.87;;
13933;SDS011;7039;52.168;9.866;2023-11-21T04:01:18;35.37;;;16.53;;
13933;SDS011;7039;52.168;9.866;2023-11-21T04:03:46;42.00;;;16.30;;
13933;SDS011;7039;52.168;9.866;2023-11-21T04:06:14;40.60;;;15.93;;
13933;SDS011;7039;52.168;9.866;2023-11-21T04:08:42;43.93;;;15.93;;
13933;SDS011;7039;52.168;9.866;2023-11-21T04:11:09;40.13;;;15.43;;
13933;SDS011;7039;52.168;9.866;2023-11-21T04:13:36;41.03;;;15.80;;
13933;SDS011;7039;52.168;9.866;2023-11-21T04:16:03;50.93;;;17.50;;
13933;SDS011;7039;52.168;9.866;2023-11-21T04:18:30;37.93;;;16.57;;
13933;SDS011;7039;52.168;9.866;2023-11-21T04:20:57;38.47;;;16.77;;
13933;SDS011;7039;52.168;9.866;2023-11-21T04:23:25;51.47;;;16.00;;
13933;SDS011;7039;52.168;9.866;2023-11-21T04:25:52;45.00;;;16.07;;
13933;SDS011;7039;52.168;9.866;2023-11-21T04:28:21;42.67;;;15.50;;
13933;SDS011;7039;52.168;9.866;2023-11-21T04:30:47;44.23;;;17.53;;
13933;SDS011;7039;52.168;9.866;2023-11-21T04:33:13;58.10;;;17.90;;
13933;SDS011;7039;52.168;9.866;2023-11-21T04:35:40;41.73;;;16.33;;
13933;SDS011;7039;52.168;9.866;2023-11-21T04:38:06;40.70;;;17.23;;
13933;SDS011;7039;52.168;9.866;2023-11-21T04:40:34;48.63;;;17.07;;
13933;SDS011;7039;52.168;9.866;2023-11-21T04:43:01;48.90;;;17.63;;
13933;SDS011;7039;52.168;9.866;2023-11-21T04:45:29;48.07;;;17.80;;
13933;SDS011;7039;52.168;9.866;2023-11-21T04:47:55;46.93;;;17.03;;
13933;SDS011;7039;52.168;9.866;2023-11-21T04:50:22;48.87;;;18.07;;
13933;SDS011;7039;52.168;9.866;2023-11-21T04:52:48;46.50;;;17.87;;
13933;SDS011;7039;52.168;9.866;2023-11-21T04:55:14;57.83;;;17.00;;
13933;SDS011;7039;52.168;9.866;2023-11-21T04:57:42;42.30;;;16.50;;
13933;SDS011;7039;52.168;9.866;2023-11-21T05:00:09;44.47;;;17.47;;
13933;SDS011;7039;52.168;9.866;2023-11-21T05:02:37;52.27;;;17.67;;
13933;SDS011;7039;52.168;9.866;2023-11-21T05:05:04;50.17;;;19.37;;
13933;SDS011;7039;52.168;9.866;2023-11-21T05:07:32;52.03;;;18.27;;
13933;SDS011;7039;52.168;9.866;2023-11-21T05:10:00;53.97;;;18.47;;
13933;SDS011;7039;52.168;9.866;2023-11-21T05:12:30;49.87;;;18.53;;
13933;SDS011;7039;52.168;9.866;2023-11-21T05:15:01;50.73;;;18.63;;
13933;SDS011;7039;52.168;9.866;2023-11-21T05:17:28;58.20;;;19.43;;
13933;SDS011;7039;52.168;9.866;2023-11-21T05:19:55;44.23;;;16.80;;
13933;SDS011;7039;52.168;9.866;2023-11-21T05:22:21;51.20;;;18.87;;
13933;SDS011;7039;52.168;9.866;2023-11-21T05:24:48;57.60;;;18.50;;
13933;SDS011;7039;52.168;9.866;2023-11-21T05:27:15;52.93;;;18.37;;
13933;SDS011;7039;52.168;9.866;2023-11-21T05:29:42;54.03;;;19.17;;
13933;SDS011;7039;52.168;9.866;2023-11-21T05:32:09;53.93;;;18.93;;
13933;SDS011;7039;52.168;9.866;2023-11-21T05:34:36;51.73;;;19.17;;
13933;SDS011;7039;52.168;9.866;2023-11-21T05:37:03;49.60;;;18.73;;
13933;SDS011;7039;52.168;9.866;2023-11-21T05:39:30;62.30;;;18.07;;
13933;SDS011;7039;52.168;9.866;2023-11-21T05:41:56;54.67;;;19.60;;
13933;SDS011;7039;52.168;9.866;2023-11-21T05:44:25;54.47;;;19.70;;
13933;SDS011;7039;52.168;9.866;2023-11-21T05:46:51;61.20;;;19.80;;
13933;SDS011;7039;52.168;9.866;2023-11-21T05:49:19;62.13;;;20.53;;
13933;SDS011;7039;52.168;9.866;2023-11-21T05:51:46;66.83;;;20.13;;
13933;SDS011;7039;52.168;9.866;2023-11-21T05:54:13;66.30;;;21.27;;
13933;SDS011;7039;52.168;9.866;2023-11-21T05:56:39;58.50;;;18.30;;
13933;SDS011;7039;52.168;9.866;2023-11-21T05:59:06;65.87;;;19.73;;
13933;SDS011;7039;52.168;9.866;2023-11-21T06:01:32;60.50;;;19.50;;
13933;SDS011;7039;52.168;9.866;2023-11-21T06:03:59;52.17;;;19.40;;
13933;SDS011;7039;52.168;9.866;2023-11-21T06:06:27;59.40;;;19.50;;
13933;SDS011;7039;52.168;9.866;2023-11-21T06:08:53;71.27;;;22.03;;
13933;SDS011;7039;52.168;9.866;2023-11-21T06:11:20;65.63;;;20.47;;
13933;SDS011;7039;52.168;9.866;2023-11-21T06:13:47;61.17;;;21.27;;
13933;SDS011;7039;52.168;9.866;2023-11-21T06:16:14;56.63;;;19.10;;
13933;SDS011;7039;52.168;9.866;2023-11-21T06:18:43;57.70;;;19.33;;
13933;SDS011;7039;52.168;9.866;2023-11-21T06:21:10;57.60;;;19.43;;
13933;SDS011;7039;52.168;9.866;2023-11-21T06:23:38;48.40;;;18.27;;
13933;SDS011;7039;52.168;9.866;2023-11-21T06:26:06;63.20;;;18.07;;
13933;SDS011;7039;52.168;9.866;2023-11-21T06:28:42;51.33;;;17.23;;
13933;SDS011;7039;52.168;9.866;2023-11-21T06:31:10;55.23;;;17.90;;
13933;SDS011;7039;52.168;9.866;2023-11-21T06:33:39;45.47;;;17.10;;
13933;SDS011;7039;52.168;9.866;2023-11-21T06:36:06;58.73;;;17.23;;
13933;SDS011;7039;52.168;9.866;2023-11-21T06:38:36;46.10;;;17.03;;
13933;SDS011;7039;52.168;9.866;2023-11-21T06:41:05;49.97;;;17.73;;
13933;SDS011;7039;52.168;9.866;2023-11-21T06:43:32;40.70;;;16.50;;
13933;SDS011;7039;52.168;9.866;2023-11-21T06:45:59;48.20;;;17.50;;
13933;SDS011;7039;52.168;9.866;2023-11-21T06:48:25;50.47;;;17.90;;
13933;SDS011;7039;52.168;9.866;2023-11-21T06:50:51;40.83;;;16.00;;
13933;SDS011;7039;52.168;9.866;2023-11-21T06:53:18;47.63;;;16.47;;
13933;SDS011;7039;52.168;9.866;2023-11-21T06:55:44;51.00;;;16.87;;
13933;SDS011;7039;52.168;9.866;2023-11-21T06:58:12;40.80;;;16.33;;
13933;SDS011;7039;52.168;9.866;2023-11-21T07:00:39;40.30;;;15.60;;
13933;SDS011;7039;52.168;9.866;2023-11-21T07:03:06;43.23;;;16.40;;
13933;SDS011;7039;52.168;9.866;2023-11-21T07:05:44;51.57;;;17.40;;
13933;SDS011;7039;52.168;9.866;2023-11-21T07:08:14;39.33;;;15.03;;
13933;SDS011;7039;52.168;9.866;2023-11-21T07:11:19;42.90;;;15.63;;
13933;SDS011;7039;52.168;9.866;2023-11-21T07:17:10;41.60;;;15.63;;
13933;SDS011;7039;52.168;9.866;2023-11-21T07:20:06;36.40;;;14.47;;
13933;SDS011;7039;52.168;9.866;2023-11-21T07:22:34;40.80;;;15.80;;
13933;SDS011;7039;52.168;9.866;2023-11-21T07:25:01;41.73;;;15.50;;
13933;SDS011;7039;52.168;9.866;2023-11-21T07:27:28;41.77;;;17.23;;
13933;SDS011;7039;52.168;9.866;2023-11-21T07:29:54;40.97;;;15.47;;
13933;SDS011;7039;52.168;9.866;2023-11-21T07:32:22;42.80;;;15.37;;
13933;SDS011;7039;52.168;9.866;2023-11-21T07:34:49;37.03;;;14.97;;
13933;SDS011;7039;52.168;9.866;2023-11-21T07:37:15;41.00;;;15.07;;
13933;SDS011;7039;52.168;9.866;2023-11-21T07:39:42;39.33;;;15.17;;
13933;SDS011;7039;52.168;9.866;2023-11-21T07:42:09;35.60;;;15.07;;
13933;SDS011;7039;52.168;9.866;2023-11-21T07:44:35;36.20;;;14.77;;
13933;SDS011;7039;52.168;9.866;2023-11-21T07:47:02;26.57;;;11.77;;
13933;SDS011;7039;52.168;9.866;2023-11-21T07:49:31;17.23;;;10.10;;
13933;SDS011;7039;52.168;9.866;2023-11-21T07:51:57;12.77;;;6.70;;
13933;SDS011;7039;52.168;9.866;2023-11-21T07:54:23;10.97;;;6.70;;
13933;SDS011;7039;52.168;9.866;2023-11-21T07:56:50;7.80;;;5.27;;
13933;SDS011;7039;52.168;9.866;2023-11-21T07:59:16;11.70;;;5.00;;
13933;SDS011;7039;52.168;9.866;2023-11-21T08:01:43;7.70;;;5.03;;
13933;SDS011;7039;52.168;9.866;2023-11-21T08:04:10;7.63;;;4.90;;
13933;SDS011;7039;52.168;9.866;2023-11-21T08:06:37;8.57;;;4.37;;
13933;SDS011;7039;52.168;9.866;2023-11-21T08:09:03;5.70;;;3.93;;
13933;SDS011;7039;52.168;9.866;2023-11-21T08:11:30;8.27;;;4.53;;
13933;SDS011;7039;52.168;9.866;2023-11-21T08:13:58;8.43;;;4.77;;
13933;SDS011;7039;52.168;9.866;2023-11-21T08:16:24;8.33;;;4.50;;
13933;SDS011;7039;52.168;9.866;2023-11-21T08:18:52;5.50;;;3.70;;
13933;SDS011;7039;52.168;9.866;2023-11-21T08:21:19;6.33;;;4.23;;
13933;SDS011;7039;52.168;9.866;2023-11-21T08:23:47;4.90;;;3.70;;
13933;SDS011;7039;52.168;9.866;2023-11-21T08:26:18;7.07;;;3.97;;
13933;SDS011;7039;52.168;9.866;2023-11-21T08:28:45;9.20;;;6.20;;
13933;SDS011;7039;52.168;9.866;2023-11-21T08:31:14;11.93;;;7.97;;
13933;SDS011;7039;52.168;9.866;2023-11-21T08:33:40;7.87;;;5.20;;
13933;SDS011;7039;52.168;9.866;2023-11-21T08:46:15;8.67;;;5.33;;
13933;SDS011;7039;52.168;9.866;2023-11-21T08:48:43;8.57;;;5.43;;
13933;SDS011;7039;52.168;9.866;2023-11-21T08:51:10;10.23;;;6.00;;
13933;SDS011;7039;52.168;9.866;2023-11-21T08:53:38;10.90;;;7.83;;
13933;SDS011;7039;52.168;9.866;2023-11-21T08:56:04;11.37;;;6.33;;
13933;SDS011;7039;52.168;9.866;2023-11-21T09:02:35;14.40;;;8.00;;
13933;SDS011;7039;52.168;9.866;2023-11-21T09:05:46;11.03;;;6.87;;
13933;SDS011;7039;52.168;9.866;2023-11-21T09:11:43;10.33;;;6.23;;
13933;SDS011;7039;52.168;9.866;2023-11-21T09:14:25;11.10;;;6.57;;
13933;SDS011;7039;52.168;9.866;2023-11-21T09:17:21;14.93;;;7.90;;
13933;SDS011;7039;52.168;9.866;2023-11-21T09:22:52;14.27;;;7.10;;
13933;SDS011;7039;52.168;9.866;2023-11-21T09:28:13;13.50;;;7.73;;
13933;SDS011;7039;52.168;9.866;2023-11-21T09:31:04;12.97;;;7.50;;
13933;SDS011;7039;52.168;9.866;2023-11-21T09:34:05;13.43;;;7.80;;
13933;SDS011;7039;52.168;9.866;2023-11-21T09:37:11;16.10;;;8.17;;
13933;SDS011;7039;52.168;9.866;2023-11-21T09:40:05;28.90;;;13.60;;
13933;SDS011;7039;52.168;9.866;2023-11-21T09:43:21;101.60;;;37.07;;
13933;SDS011;7039;52.168;9.866;2023-11-21T09:46:17;294.03;;;94.77;;
13933;SDS011;7039;52.168;9.866;2023-11-21T09:49:46;142.47;;;45.87;;
13933;SDS011;7039;52.168;9.866;2023-11-21T10:09:58;16.90;;;7.70;;
13933;SDS011;7039;52.168;9.866;2023-11-21T10:12:41;12.53;;;7.30;;
13933;SDS011;7039;52.168;9.866;2023-11-21T10:15:57;14.70;;;7.80;;
13933;SDS011;7039;52.168;9.866;2023-11-21T10:18:44;15.00;;;7.30;;
13933;SDS011;7039;52.168;9.866;2023-11-21T10:22:08;13.37;;;8.23;;
13933;SDS011;7039;52.168;9.866;2023-11-21T10:24:51;13.13;;;7.27;;
13933;SDS011;7039;52.168;9.866;2023-11-21T10:27:34;12.30;;;7.50;;
13933;SDS011;7039;52.168;9.866;2023-11-21T10:30:38;11.77;;;6.93;;
13933;SDS011;7039;52.168;9.866;2023-11-21T10:33:41;12.37;;;7.73;;
13933;SDS011;7039;52.168;9.866;2023-11-21T10:36:55;57.13;;;25.90;;
13933;SDS011;7039;52.168;9.866;2023-11-21T10:39:57;17.07;;;10.03;;
13933;SDS011;7039;52.168;9.866;2023-11-21T10:43:24;9.73;;;5.90;;
13933;SDS011;7039;52.168;9.866;2023-11-21T10:46:04;10.43;;;6.50;;
13933;SDS011;7039;52.168;9.866;2023-11-21T10:49:00;9.70;;;6.20;;
13933;SDS011;7039;52.168;9.866;2023-11-21T10:51:28;11.03;;;7.00;;
13933;SDS011;7039;52.168;9.866;2023-11-21T10:54:02;11.40;;;8.20;;
13933;SDS011;7039;52.168;9.866;2023-11-21T10:56:56;11.07;;;6.43;;
13933;SDS011;7039;52.168;9.866;2023-11-21T10:59:29;13.40;;;6.77;;
13933;SDS011;7039;52.168;9.866;2023-11-21T11:02:00;11.90;;;6.90;;
13933;SDS011;7039;52.168;9.866;2023-11-21T11:07:26;8.93;;;5.57;;
13933;SDS011;7039;52.168;9.866;2023-11-21T11:10:00;8.87;;;5.77;;
13933;SDS011;7039;52.168;9.866;2023-11-21T11:12:33;8.57;;;6.00;;
13933;SDS011;7039;52.168;9.866;2023-11-21T11:15:22;12.00;;;5.97;;
13933;SDS011;7039;52.168;9.866;2023-11-21T11:18:04;9.47;;;6.23;;
13933;SDS011;7039;52.168;9.866;2023-11-21T11:20:51;9.73;;;6.00;;
13933;SDS011;7039;52.168;9.866;2023-11-21T11:23:55;8.90;;;5.90;;
13933;SDS011;7039;52.168;9.866;2023-11-21T11:26:42;9.67;;;5.60;;
13933;SDS011;7039;52.168;9.866;2023-11-21T11:29:46;9.23;;;5.93;;
13933;SDS011;7039;52.168;9.866;2023-11-21T11:37:30;27.30;;;12.73;;
13933;SDS011;7039;52.168;9.866;2023-11-21T11:39:57;24.20;;;12.53;;
13933;SDS011;7039;52.168;9.866;2023-11-21T11:42:26;12.17;;;7.37;;
13933;SDS011;7039;52.168;9.866;2023-11-21T11:45:00;19.07;;;9.87;;
13933;SDS011;7039;52.168;9.866;2023-11-21T11:47:39;196.33;;;78.27;;
13933;SDS011;7039;52.168;9.866;2023-11-21T11:50:23;20.50;;;11.83;;
13933;SDS011;7039;52.168;9.866;2023-11-21T11:55:57;16.63;;;9.17;;
13933;SDS011;7039;52.168;9.866;2023-11-21T11:58:46;68.43;;;25.73;;
13933;SDS011;7039;52.168;9.866;2023-11-21T12:01:13;10.87;;;6.10;;
13933;SDS011;7039;52.168;9.866;2023-11-21T12:03:43;18.10;;;11.03;;
13933;SDS011;7039;52.168;9.866;2023-11-21T12:06:09;9.30;;;6.10;;
13933;SDS011;7039;52.168;9.866;2023-11-21T12:08:38;7.83;;;5.90;;
13933;SDS011;7039;52.168;9.866;2023-11-21T12:11:04;9.17;;;6.13;;
13933;SDS011;7039;52.168;9.866;2023-11-21T12:13:31;10.47;;;6.93;;
13933;SDS011;7039;52.168;9.866;2023-11-21T12:15:58;9.13;;;6.50;;
13933;SDS011;7039;52.168;9.866;2023-11-21T12:18:25;10.73;;;6.20;;
13933;SDS011;7039;52.168;9.866;2023-11-21T12:20:52;8.60;;;5.20;;
13933;SDS011;7039;52.168;9.866;2023-11-21T12:23:18;8.03;;;5.60;;
13933;SDS011;7039;52.168;9.866;2023-11-21T12:25:47;8.17;;;5.93;;
13933;SDS011;7039;52.168;9.866;2023-11-21T12:28:13;11.80;;;6.20;;
13933;SDS011;7039;52.168;9.866;2023-11-21T12:30:40;10.23;;;6.03;;
13933;SDS011;7039;52.168;9.866;2023-11-21T12:33:06;12.13;;;5.93;;
13933;SDS011;7039;52.168;9.866;2023-11-21T12:35:34;9.90;;;5.90;;
13933;SDS011;7039;52.168;9.866;2023-11-21T12:38:01;11.97;;;6.07;;
13933;SDS011;7039;52.168;9.866;2023-11-21T12:40:29;9.77;;;6.13;;
13933;SDS011;7039;52.168;9.866;2023-11-21T12:42:57;9.23;;;5.37;;
13933;SDS011;7039;52.168;9.866;2023-11-21T12:45:26;10.60;;;6.17;;
13933;SDS011;7039;52.168;9.866;2023-11-21T12:47:55;9.03;;;5.80;;
13933;SDS011;7039;52.168;9.866;2023-11-21T12:50:24;8.27;;;5.43;;
13933;SDS011;7039;52.168;9.866;2023-11-21T12:52:54;8.90;;;5.93;;
13933;SDS011;7039;52.168;9.866;2023-11-21T12:55:24;6.83;;;5.50;;
13933;SDS011;7039;52.168;9.866;2023-11-21T12:57:51;8.07;;;5.33;;
13933;SDS011;7039;52.168;9.866;2023-11-21T13:00:27;6.63;;;4.93;;
13933;SDS011;7039;52.168;9.866;2023-11-21T13:03:02;9.57;;;5.67;;
13933;SDS011;7039;52.168;9.866;2023-11-21T13:05:30;6.67;;;4.93;;
13933;SDS011;7039;52.168;9.866;2023-11-21T13:07:59;6.67;;;4.73;;
13933;SDS011;7039;52.168;9.866;2023-11-21T13:10:28;7.40;;;4.53;;
13933;SDS011;7039;52.168;9.866;2023-11-21T13:12:56;7.77;;;4.57;;
13933;SDS011;7039;52.168;9.866;2023-11-21T13:15:26;6.07;;;4.30;;
13933;SDS011;7039;52.168;9.866;2023-11-21T13:17:53;8.50;;;5.17;;
13933;SDS011;7039;52.168;9.866;2023-11-21T13:20:21;6.40;;;4.60;;
13933;SDS011;7039;52.168;9.866;2023-11-21T13:22:49;9.23;;;4.67;;
13933;SDS011;7039;52.168;9.866;2023-11-21T13:25:19;9.37;;;4.87;;
13933;SDS011;7039;52.168;9.866;2023-11-21T13:27:46;7.40;;;4.57;;
13933;SDS011;7039;52.168;9.866;2023-11-21T13:30:13;7.77;;;5.00;;
13933;SDS011;7039;52.168;9.866;2023-11-21T13:32:43;6.27;;;4.60;;
13933;SDS011;7039;52.168;9.866;2023-11-21T13:35:11;7.33;;;4.30;;
13933;SDS011;7039;52.168;9.866;2023-11-21T13:37:46;5.93;;;4.47;;
13933;SDS011;7039;52.168;9.866;2023-11-21T13:40:16;7.27;;;4.10;;
13933;SDS011;7039;52.168;9.866;2023-11-21T13:42:47;8.43;;;4.50;;
13933;SDS011;7039;52.168;9.866;2023-11-21T13:45:18;6.23;;;3.97;;
13933;SDS011;7039;52.168;9.866;2023-11-21T13:47:47;6.00;;;4.17;;
13933;SDS011;7039;52.168;9.866;2023-11-21T13:50:16;7.53;;;3.90;;
13933;SDS011;7039;52.168;9.866;2023-11-21T13:52:47;6.53;;;3.80;;
13933;SDS011;7039;52.168;9.866;2023-11-21T13:55:14;5.73;;;4.00;;
13933;SDS011;7039;52.168;9.866;2023-11-21T13:57:41;7.17;;;3.80;;
13933;SDS011;7039;52.168;9.866;2023-11-21T14:00:10;8.67;;;4.47;;
13933;SDS011;7039;52.168;9.866;2023-11-21T14:02:59;6.40;;;4.63;;
13933;SDS011;7039;52.168;9.866;2023-11-21T14:05:26;6.43;;;3.77;;
13933;SDS011;7039;52.168;9.866;2023-11-21T14:07:54;8.83;;;5.37;;
13933;SDS011;7039;52.168;9.866;2023-11-21T14:10:27;7.07;;;5.00;;
13933;SDS011;7039;52.168;9.866;2023-11-21T14:13:01;6.07;;;4.33;;
13933;SDS011;7039;52.168;9.866;2023-11-21T14:15:28;6.80;;;4.40;;
13933;SDS011;7039;52.168;9.866;2023-11-21T14:17:56;7.60;;;5.00;;
13933;SDS011;7039;52.168;9.866;2023-11-21T14:20:24;8.10;;;5.20;;
13933;SDS011;7039;52.168;9.866;2023-11-21T14:22:50;11.73;;;4.93;;
13933;SDS011;7039;52.168;9.866;2023-11-21T14:25:17;7.50;;;4.80;;
13933;SDS011;7039;52.168;9.866;2023-11-21T14:27:44;6.40;;;4.53;;
13933;SDS011;7039;52.168;9.866;2023-11-21T14:30:10;6.77;;;4.57;;
13933;SDS011;7039;52.168;9.866;2023-11-21T14:32:38;5.60;;;4.17;;
13933;SDS011;7039;52.168;9.866;2023-11-21T14:35:05;5.70;;;4.20;;
13933;SDS011;7039;52.168;9.866;2023-11-21T14:37:35;6.47;;;4.63;;
13933;SDS011;7039;52.168;9.866;2023-11-21T14:40:02;6.30;;;4.20;;
13933;SDS011;7039;52.168;9.866;2023-11-21T14:42:32;7.67;;;3.90;;
13933;SDS011;7039;52.168;9.866;2023-11-21T14:45:00;6.30;;;4.00;;
13933;SDS011;7039;52.168;9.866;2023-11-21T14:47:31;5.27;;;3.77;;
13933;SDS011;7039;52.168;9.866;2023-11-21T14:49:58;6.13;;;4.30;;
13933;SDS011;7039;52.168;9.866;2023-11-21T14:52:31;5.73;;;4.07;;
13933;SDS011;7039;52.168;9.866;2023-11-21T14:55:00;6.83;;;4.70;;
13933;SDS011;7039;52.168;9.866;2023-11-21T14:57:40;7.57;;;4.90;;
13933;SDS011;7039;52.168;9.866;2023-11-21T15:00:12;5.60;;;3.87;;
13933;SDS011;7039;52.168;9.866;2023-11-21T15:02:57;6.17;;;4.07;;
13933;SDS011;7039;52.168;9.866;2023-11-21T15:05:23;5.33;;;3.80;;
13933;SDS011;7039;52.168;9.866;2023-11-21T15:07:50;5.40;;;4.07;;
13933;SDS011;7039;52.168;9.866;2023-11-21T15:10:22;5.07;;;3.83;;
13933;SDS011;7039;52.168;9.866;2023-11-21T15:12:55;4.73;;;3.67;;
13933;SDS011;7039;52.168;9.866;2023-11-21T15:15:22;4.87;;;3.43;;
13933;SDS011;7039;52.168;9.866;2023-11-21T15:17:49;4.47;;;3.57;;
13933;SDS011;7039;52.168;9.866;2023-11-21T15:20:16;4.87;;;3.43;;
13933;SDS011;7039;52.168;9.866;2023-11-21T15:22:44;5.90;;;3.87;;
13933;SDS011;7039;52.168;9.866;2023-11-21T15:25:10;6.20;;;3.70;;
13933;SDS011;7039;52.168;9.866;2023-11-21T15:27:41;4.73;;;3.67;;
13933;SDS011;7039;52.168;9.866;2023-11-21T15:30:09;6.80;;;3.77;;
13933;SDS011;7039;52.168;9.866;2023-11-21T15:32:35;8.10;;;4.17;;
13933;SDS011;7039;52.168;9.866;2023-11-21T15:35:04;7.60;;;4.10;;
13933;SDS011;7039;52.168;9.866;2023-11-21T15:37:35;6.53;;;4.50;;
13933;SDS011;7039;52.168;9.866;2023-11-21T15:40:03;6.43;;;4.37;;
13933;SDS011;7039;52.168;9.866;2023-11-21T15:42:33;6.27;;;4.43;;
13933;SDS011;7039;52.168;9.866;2023-11-21T15:45:02;8.07;;;4.23;;
13933;SDS011;7039;52.168;9.866;2023-11-21T15:47:29;6.57;;;4.03;;
13933;SDS011;7039;52.168;9.866;2023-11-21T15:49:57;5.50;;;3.73;;
13933;SDS011;7039;52.168;9.866;2023-11-21T15:52:29;4.33;;;3.33;;
13933;SDS011;7039;52.168;9.866;2023-11-21T15:54:55;6.87;;;3.60;;
13933;SDS011;7039;52.168;9.866;2023-11-21T15:57:22;4.37;;;3.50;;
13933;SDS011;7039;52.168;9.866;2023-11-21T15:59:49;5.18;;;3.53;;